WetterOnline ( http://www.wetteronline.de )

Wetter aktuell Hittbergen

Aktuelles Wetter: Lüchow (18m)

6-stündlich | Neueste Meldungen
Ortszeit Temperatur Wetter
Mi, 24.10. 2:00 11.6° C bedeckt
Di, 23.10. 20:00 12.2° C bedeckt
Di, 23.10. 14:00 11.1° C Sprühregen
Di, 23.10. 8:00 9.3° C bedeckt
Di, 23.10. 2:00 4.1° C wolkig
Mo, 22.10. 20:00 5.7° C wolkenlos
Mo, 22.10. 14:00 12.8° C bewölkt
Mo, 22.10. 8:00 9.9° C bedeckt
Ortszeit Temperatur Wetter
Mi, 24.10. 4:00 11.3° C bedeckt
Mi, 24.10. 3:50 11.3° C bedeckt
Mi, 24.10. 3:40 11.2° C bewölkt
Mi, 24.10. 3:30 11.4° C Sprühregen
Mi, 24.10. 3:20 11.4° C Sprühregen
Mi, 24.10. 3:10 11.4° C bewölkt
Mi, 24.10. 3:00 11.2° C wolkig
Mi, 24.10. 2:30 11.2° C bedeckt
Mi, 24.10. 2:00 11.6° C bedeckt
Mi, 24.10. 1:30 11.8° C bedeckt
Mi, 24.10. 1:00 12.2° C wolkig
Ortszeit Relative Feuchte Sichtweite
Mi, 24.10. 2:00 74% 60 km
Di, 23.10. 20:00 85% 40 km
Di, 23.10. 14:00 94% 3.0 km
Di, 23.10. 8:00 73% 30 km
Di, 23.10. 2:00 87% 24 km
Mo, 22.10. 20:00 80% 35 km
Mo, 22.10. 14:00 59% 40 km
Mo, 22.10. 8:00 86% 9 km
Ortszeit Relative Feuchte Sichtweite
Mi, 24.10. 4:00 79% 45 km
Mi, 24.10. 3:50 79% -
Mi, 24.10. 3:40 80% -
Mi, 24.10. 3:30 77% 40 km
Mi, 24.10. 3:20 77% -
Mi, 24.10. 3:10 77% -
Mi, 24.10. 3:00 77% 50 km
Mi, 24.10. 2:30 76% 70 km
Mi, 24.10. 2:00 74% 60 km
Mi, 24.10. 1:30 71% 60 km
Mi, 24.10. 1:00 73% 55 km
Ortszeit Niederschlagsmenge Niederschlagsart
Mi, 24.10. 2:00 0.2 l/m2 in 6 Std. Regen
Di, 23.10. 20:00 3 l/m2 in 12 Std. Regen
Di, 23.10. 14:00 0.1 l/m2 in 6 Std. Regen
Di, 23.10. 8:00 0.0 l/m2 in 12 Std. -
Di, 23.10. 2:00 0.0 l/m2 in 6 Std. -
Mo, 22.10. 20:00 1 l/m2 in 12 Std. -
Mo, 22.10. 14:00 1 l/m2 in 6 Std. Regen
Mo, 22.10. 8:00 0.0 l/m2 in 12 Std. -
Ortszeit Niederschlagsmenge Niederschlagsart
Mi, 24.10. 4:00 0.1 l/m2 in 1 Std. Sprühregen
Mi, 24.10. 3:50 keine Meldung -
Mi, 24.10. 3:40 keine Meldung -
Mi, 24.10. 3:30 0.1 l/m2 in 1 Std. -
Mi, 24.10. 3:20 keine Meldung -
Mi, 24.10. 3:10 keine Meldung -
Mi, 24.10. 3:00 0.0 l/m2 in 1 Std. -
Mi, 24.10. 2:30 0.0 l/m2 in 1 Std. -
Mi, 24.10. 2:00 0.0 l/m2 in 1 Std. Regen
Mi, 24.10. 1:30 0.0 l/m2 in 1 Std. -
Mi, 24.10. 1:00 0.0 l/m2 in 1 Std. -
Ortszeit Stärke Spitze Richtung
km/h Bft. km/h Grad Sektor
Mi, 24.10. 2:00 22 4 54 300° NW
Di, 23.10. 20:00 18 3 50 280° W
Di, 23.10. 14:00 24 4 56 270° W
Di, 23.10. 8:00 28 4 57 250° W
Di, 23.10. 2:00 14 3 18 220° SW
Mo, 22.10. 20:00 6 1 35 240° SW
Mo, 22.10. 14:00 18 3 36 330° NW
Mo, 22.10. 8:00 7 2 14 240° SW
Ortszeit Stärke Spitze Richtung
km/h Bft. km/h Grad Sektor
Mi, 24.10. 4:00 18 3 40 310° NW
Mi, 24.10. 3:50 18 3 - 310° NW
Mi, 24.10. 3:40 17 3 - 310° NW
Mi, 24.10. 3:30 18 3 40 300° NW
Mi, 24.10. 3:20 18 3 - 300° NW
Mi, 24.10. 3:10 18 3 - 300° NW
Mi, 24.10. 3:00 15 3 44 300° NW
Mi, 24.10. 2:30 17 3 44 300° NW
Mi, 24.10. 2:00 22 4 50 300° NW
Mi, 24.10. 1:30 19 3 48 300° NW
Mi, 24.10. 1:00 22 4 50 300° NW
Ortszeit Untergrenze Bedeckung Gattung
total tief tief mittel hoch
Mi, 24.10. 2:00 900 m 8/8 8/8 - - -
Di, 23.10. 20:00 570 m 8/8 8/8 - - -
Di, 23.10. 14:00 330 m 8/8 8/8 - - -
Di, 23.10. 8:00 720 m 8/8 8/8 - - -
Di, 23.10. 2:00 1800 m 6/8 2/8 - - -
Mo, 22.10. 20:00 - 0/8 0/8 - - -
Mo, 22.10. 14:00 1350 m 8/8 - - - -
Mo, 22.10. 8:00 390 m 8/8 8/8 - - -
Ortszeit Bedeckungsgrad in Achtel und Wolkenuntergrenze
Mi, 24.10. 4:00 4(720m) 7(1500m) 8(2700m)
Mi, 24.10. 3:50 4(720m) 7(1500m) 8(2700m)
Mi, 24.10. 3:40 4(660m) 7(1500m) 8(3000m)
Mi, 24.10. 3:30 7(720m) 8(960m) 8(3300m)
Mi, 24.10. 3:20 7(720m) 8(960m) 8(3300m)
Mi, 24.10. 3:10 6(750m) 8(3300m) 8(5100m)
Mi, 24.10. 3:00 2(810m) 8(3300m) 8(5100m)
Mi, 24.10. 2:30 3(1320m) 8(2700m) 8(5400m)
Mi, 24.10. 2:00 2(900m) 5(1500m) 8(2100m)
Mi, 24.10. 1:30 2(990m) 5(1800m) 8(2100m)
Mi, 24.10. 1:00 2(810m) 8(3300m) 8(6300m)
Ortszeit Luftdruck NN (hPa) Tendenz (hPa in 3 Std.)
Mi, 24.10. 2:00 1011 + 0,4
Di, 23.10. 20:00 1011 + 0,4
Di, 23.10. 14:00 1012 - 2,4
Di, 23.10. 8:00 1017 - 5,1
Di, 23.10. 2:00 1027 - 2,8
Mo, 22.10. 20:00 1030 + 0,5
Mo, 22.10. 14:00 1029 + 0,8
Mo, 22.10. 8:00 1025 + 0,3
Ortszeit Luftdruck NN (hPa) Tendenz (hPa in 3 Std.)
Mi, 24.10. 4:00 1011 + 0,1
Mi, 24.10. 3:50 1011 keine Meldung
Mi, 24.10. 3:40 1011 keine Meldung
Mi, 24.10. 3:30 1011 + 0,3
Mi, 24.10. 3:20 1011 keine Meldung
Mi, 24.10. 3:10 1011 keine Meldung
Mi, 24.10. 3:00 1011 + 0,2
Mi, 24.10. 2:30 1011 + 0,6
Mi, 24.10. 2:00 1011 + 0,4
Mi, 24.10. 1:30 1011 + 0,4
Mi, 24.10. 1:00 1011 + 0,1
Ortszeit Schneehöhe (cm)
Mi, 24.10. 2:00 0
Di, 23.10. 20:00 0
Di, 23.10. 14:00 0
Di, 23.10. 8:00 0
Di, 23.10. 2:00 0
Mo, 22.10. 20:00 0
Mo, 22.10. 14:00 0
Mo, 22.10. 8:00 0
Ortszeit Schneehöhe (cm)
Mi, 24.10. 4:00 0
Mi, 24.10. 3:50 0
Mi, 24.10. 3:40 0
Mi, 24.10. 3:30 0
Mi, 24.10. 3:20 0
Mi, 24.10. 3:10 0
Mi, 24.10. 3:00 0
Mi, 24.10. 2:30 0
Mi, 24.10. 2:00 0
Mi, 24.10. 1:30 0
Mi, 24.10. 1:00 0
Link zu dieser Seite / Seite empfehlen

Das Wetter in ...